Time;durP1;ratioP1;P1;durP2;ratioP2;P2;SDS_P1;SDS_P2;PMS_P1;PMS_P2;Temp;Humidity;BMP_temperature;BMP_pressure;BME280_temperature;BME280_humidity;BME280_pressure;Samples;Min_cycle;Max_cycle;Signal;HPM_P1;HPM_P2
2021/11/17 02:27:02;;;;;;;2.72;2.63;;;18.30;64.80;;;;;;5019290;28;20045;-25
2021/11/17 02:29:31;;;;;;;3.00;2.90;;;18.30;64.70;;;;;;4986614;28;20180;-21
2021/11/17 02:32:14;;;;;;;2.95;2.80;;;18.30;64.80;;;;;;5018605;28;20022;-25
2021/11/17 02:35:08;;;;;;;2.70;2.60;;;18.30;64.80;;;;;;5018643;28;20036;-27
2021/11/17 02:37:58;;;;;;;2.35;2.25;;;18.30;64.80;;;;;;5019287;28;20048;-24
2021/11/17 02:40:41;;;;;;;2.90;2.70;;;18.30;64.70;;;;;;5018848;28;20451;-26
2021/11/17 02:43:42;;;;;;;2.92;2.72;;;18.30;64.70;;;;;;5018408;28;20022;-24
2021/11/17 02:46:17;;;;;;;2.33;2.22;;;18.30;64.60;;;;;;5018606;28;20050;-26
2021/11/17 02:48:53;;;;;;;3.25;2.75;;;18.30;64.50;;;;;;5018650;28;20034;-30
2021/11/17 02:51:56;;;;;;;2.50;2.40;;;18.30;64.70;;;;;;5031892;28;20040;-27
2021/11/17 02:54:56;;;;;;;2.30;2.20;;;18.20;64.70;;;;;;5031589;28;20160;-24
2021/11/17 02:58:12;;;;;;;2.35;2.25;;;18.20;64.80;;;;;;5038731;28;20552;-31
2021/11/17 03:00:48;;;;;;;2.58;2.30;;;18.20;64.60;;;;;;5013875;28;20406;-24
2021/11/17 03:03:20;;;;;;;2.60;2.50;;;18.30;64.60;;;;;;5018137;28;20022;-26
2021/11/17 03:06:18;;;;;;;2.80;2.60;;;18.20;64.60;;;;;;5018334;28;20028;-27
2021/11/17 03:09:22;;;;;;;2.47;2.38;;;18.30;64.60;;;;;;5009640;28;20552;-32
2021/11/17 03:12:24;;;;;;;2.30;2.20;;;18.30;64.50;;;;;;5012851;28;20113;-28
2021/11/17 03:15:23;;;;;;;2.38;2.28;;;18.20;64.60;;;;;;5018211;28;20069;-23
2021/11/17 03:17:58;;;;;;;2.58;2.47;;;18.20;65.30;;;;;;5009665;28;20062;-21
2021/11/17 03:20:46;;;;;;;2.65;2.45;;;18.20;64.70;;;;;;5013254;28;20049;-29
2021/11/17 03:23:46;;;;;;;2.75;2.60;;;18.20;64.60;;;;;;4998173;28;20434;-27
2021/11/17 03:26:52;;;;;;;2.30;2.20;;;18.20;64.70;;;;;;4998347;28;20522;-23
2021/11/17 03:29:48;;;;;;;2.38;2.28;;;18.20;64.60;;;;;;4998612;28;20566;-25
2021/11/17 03:32:51;;;;;;;2.40;2.20;;;18.20;64.80;;;;;;5000231;28;20038;-24
2021/11/17 03:35:26;;;;;;;2.40;2.30;;;18.20;64.80;;;;;;5017715;28;20022;-25
2021/11/17 03:38:03;;;;;;;2.00;1.90;;;18.20;64.70;;;;;;5012533;28;20026;-25
2021/11/17 03:40:52;;;;;;;2.50;2.40;;;18.20;64.70;;;;;;4998118;28;20109;-28
2021/11/17 03:43:35;;;;;;;2.60;2.50;;;18.20;64.70;;;;;;4977693;28;20117;-29
2021/11/17 03:46:07;;;;;;;2.40;2.30;;;18.20;65.60;;;;;;4997978;28;20043;-30
2021/11/17 03:49:10;;;;;;;2.35;2.22;;;18.20;64.80;;;;;;4997978;28;20027;-29
2021/11/17 03:51:38;;;;;;;2.22;2.13;;;18.20;64.80;;;;;;5029445;28;20029;-22
2021/11/17 03:54:23;;;;;;;2.05;1.95;;;18.10;64.90;;;;;;5037157;28;20219;-25
2021/11/17 03:57:13;;;;;;;2.33;2.13;;;18.20;64.80;;;;;;5037129;28;20029;-27
2021/11/17 04:00:03;;;;;;;2.22;2.13;;;18.20;64.80;;;;;;5030640;28;20030;-26
2021/11/17 04:03:04;;;;;;;2.70;2.50;;;18.20;64.80;;;;;;5016706;28;20030;-27
2021/11/17 04:05:44;;;;;;;2.45;2.35;;;18.20;64.80;;;;;;5009013;28;20045;-24
2021/11/17 04:08:31;;;;;;;2.00;1.90;;;18.10;65.60;;;;;;5017136;28;20036;-21
2021/11/17 04:11:15;;;;;;;2.08;1.98;;;18.20;64.80;;;;;;5017169;28;20036;-24
2021/11/17 04:13:50;;;;;;;2.55;2.33;;;18.10;64.80;;;;;;5016626;28;20026;-31
2021/11/17 04:16:40;;;;;;;2.22;2.13;;;18.10;64.90;;;;;;5017196;28;20105;-24
2021/11/17 04:19:06;;;;;;;2.10;2.00;;;18.10;64.90;;;;;;5017237;28;20479;-26
2021/11/17 04:21:43;;;;;;;1.95;1.85;;;18.10;65.00;;;;;;5016984;28;20156;-27
2021/11/17 04:24:31;;;;;;;2.13;2.03;;;18.10;65.90;;;;;;5016793;28;20032;-21
2021/11/17 04:27:15;;;;;;;2.15;2.05;;;18.10;65.10;;;;;;5016952;28;20402;-24
2021/11/17 04:30:08;;;;;;;2.00;1.88;;;18.10;65.00;;;;;;5017107;28;20033;-25
2021/11/17 04:33:06;;;;;;;2.20;2.10;;;18.10;65.30;;;;;;5015923;28;20018;-31
2021/11/17 04:36:04;;;;;;;2.08;1.98;;;18.10;65.30;;;;;;5012924;28;20442;-24
2021/11/17 04:38:35;;;;;;;2.15;2.00;;;18.10;65.20;;;;;;5016665;28;20076;-28
2021/11/17 04:41:19;;;;;;;1.85;1.75;;;18.10;65.30;;;;;;5016631;28;20030;-27
2021/11/17 04:43:50;;;;;;;1.77;1.67;;;18.00;65.30;;;;;;5016443;28;20390;-22
2021/11/17 04:46:28;;;;;;;2.17;2.08;;;18.10;65.20;;;;;;5016861;28;20092;-28
2021/11/17 04:49:41;;;;;;;1.95;1.85;;;18.10;65.20;;;;;;4996931;28;20221;-26
2021/11/17 04:52:07;;;;;;;1.20;1.20;;;18.10;65.30;;;;;;5013284;28;20034;-28
2021/11/17 04:54:51;;;;;;;2.13;1.98;;;18.00;65.30;;;;;;4999103;28;20061;-27
2021/11/17 04:57:32;;;;;;;2.05;1.95;;;18.00;65.30;;;;;;4997049;28;20022;-22
2021/11/17 05:00:16;;;;;;;2.00;1.90;;;18.00;65.30;;;;;;5015154;28;20045;-21
2021/11/17 05:03:23;;;;;;;1.80;1.70;;;18.00;65.30;;;;;;5035645;28;20026;-27
2021/11/17 05:05:55;;;;;;;2.00;1.90;;;18.10;65.30;;;;;;5031533;28;20067;-30
2021/11/17 05:08:53;;;;;;;2.10;2.00;;;18.00;65.30;;;;;;5036102;28;20021;-22
2021/11/17 05:11:25;;;;;;;2.20;2.00;;;18.00;65.30;;;;;;5035486;28;20045;-22
2021/11/17 05:13:59;;;;;;;1.63;1.52;;;18.00;65.40;;;;;;5035520;28;20032;-27
2021/11/17 05:16:24;;;;;;;;;;;18.00;65.30;;;;;;5032301;28;20033;-25
2021/11/17 05:19:05;;;;;;;1.80;1.70;;;18.10;65.30;;;;;;5035762;28;19905;-25
2021/11/17 05:22:00;;;;;;;1.77;1.67;;;18.10;65.30;;;;;;5035680;28;20033;-21
2021/11/17 05:24:44;;;;;;;1.70;1.60;;;18.00;65.30;;;;;;5035895;28;20060;-27
2021/11/17 05:27:25;;;;;;;1.40;1.30;;;18.00;65.30;;;;;;5035929;28;20053;-23
2021/11/17 05:30:26;;;;;;;1.80;1.70;;;18.00;65.40;;;;;;5035908;28;20029;-28
2021/11/17 05:33:01;;;;;;;1.60;1.50;;;18.00;65.50;;;;;;5012735;28;20041;-26
2021/11/17 05:35:45;;;;;;;1.80;1.70;;;18.00;65.30;;;;;;5028880;28;20108;-30
2021/11/17 05:38:14;;;;;;;1.55;1.45;;;18.00;65.40;;;;;;5016242;28;20030;-29
2021/11/17 05:40:42;;;;;;;1.52;1.48;;;18.00;65.30;;;;;;5015861;28;20022;-29
2021/11/17 05:43:45;;;;;;;1.55;1.45;;;18.00;65.40;;;;;;5015283;28;20014;-22
2021/11/17 05:46:19;;;;;;;1.80;1.70;;;18.00;65.40;;;;;;5019773;28;20105;-23
2021/11/17 05:48:45;;;;;;;;;;;18.00;65.40;;;;;;5019990;28;20677;-27
2021/11/17 05:51:42;;;;;;;1.40;1.38;;;18.00;65.50;;;;;;5032171;28;19909;-23
2021/11/17 05:54:26;;;;;;;1.67;1.58;;;17.90;65.30;;;;;;5039449;28;20457;-25
2021/11/17 05:57:16;;;;;;;1.40;1.30;;;18.00;65.50;;;;;;5039780;28;20053;-26
2021/11/17 06:00:03;;;;;;;1.60;1.50;;;18.00;65.50;;;;;;5032526;28;20076;-23
2021/11/17 06:02:50;;;;;;;1.35;1.30;;;17.90;65.30;;;;;;5019289;28;20046;-24
2021/11/17 06:05:16;;;;;;;1.58;1.58;;;17.90;65.30;;;;;;5019712;28;20030;-26
2021/11/17 06:07:41;;;;;;;1.10;1.10;;;18.00;65.30;;;;;;5019979;28;20036;-23
2021/11/17 06:10:19;;;;;;;1.25;1.20;;;18.00;65.40;;;;;;5019539;28;20026;-25
2021/11/17 06:12:45;;;;;;;1.50;1.40;;;18.00;65.30;;;;;;5032817;28;20061;-24
2021/11/17 06:15:12;;;;;;;1.58;1.48;;;18.00;65.20;;;;;;5018740;28;20025;-23
2021/11/17 06:17:38;;;;;;;1.88;1.45;;;18.00;65.20;;;;;;5032784;28;20096;-30
2021/11/17 06:20:05;;;;;;;1.30;1.25;;;18.00;65.30;;;;;;5031193;28;20382;-26
2021/11/17 06:22:32;;;;;;;1.45;1.35;;;18.00;65.10;;;;;;5047366;28;20048;-26
2021/11/17 06:24:59;;;;;;;1.10;1.10;;;18.00;65.10;;;;;;5035345;28;20030;-23
2021/11/17 06:27:27;;;;;;;1.20;1.20;;;18.00;65.10;;;;;;5021639;28;20118;-31
2021/11/17 06:29:53;;;;;;;1.30;1.30;;;18.00;65.10;;;;;;5038624;28;20029;-27
2021/11/17 06:32:19;;;;;;;1.35;1.35;;;17.90;65.20;;;;;;5042323;28;20041;-25
2021/11/17 06:34:50;;;;;;;1.30;1.20;;;17.90;65.30;;;;;;5035306;28;20017;-27
2021/11/17 06:37:20;;;;;;;1.30;1.30;;;17.90;65.30;;;;;;5018685;28;20034;-25
2021/11/17 06:39:47;;;;;;;1.13;1.13;;;17.90;65.30;;;;;;5038267;28;20040;-24
2021/11/17 06:42:15;;;;;;;1.42;1.33;;;17.90;65.30;;;;;;5029092;28;20530;-26
2021/11/17 06:44:41;;;;;;;1.63;1.52;;;17.90;65.30;;;;;;5016289;28;20026;-27
2021/11/17 06:47:06;;;;;;;1.20;1.10;;;17.90;65.30;;;;;;5022900;28;20478;-25
2021/11/17 06:49:32;;;;;;;1.55;1.45;;;17.90;65.40;;;;;;5017122;28;20041;-29
2021/11/17 06:51:58;;;;;;;1.23;1.23;;;17.90;65.50;;;;;;5011494;28;20023;-24
2021/11/17 06:54:24;;;;;;;1.30;1.30;;;18.00;65.20;;;;;;5019600;28;20109;-21
2021/11/17 06:56:49;;;;;;;1.10;1.10;;;18.00;65.10;;;;;;5019323;28;20022;-22
2021/11/17 06:59:15;;;;;;;1.08;1.08;;;18.00;65.90;;;;;;5022750;28;20026;-26
2021/11/17 07:01:41;;;;;;;1.25;1.25;;;18.00;65.20;;;;;;5039295;28;20104;-25
2021/11/17 07:04:07;;;;;;;1.00;1.00;;;18.10;65.00;;;;;;5038911;28;20038;-23
2021/11/17 07:06:33;;;;;;;1.70;1.10;;;18.10;65.20;;;;;;5039239;28;20529;-28
2021/11/17 07:08:59;;;;;;;1.00;1.00;;;18.10;65.40;;;;;;5027080;28;20065;-24
2021/11/17 07:11:25;;;;;;;1.10;1.00;;;18.10;65.20;;;;;;5018806;28;20030;-25
2021/11/17 07:13:50;;;;;;;2.08;1.27;;;18.10;65.50;;;;;;5018921;28;20061;-22
2021/11/17 07:16:16;;;;;;;1.20;1.20;;;18.20;65.40;;;;;;5019194;28;20072;-28
2021/11/17 07:18:42;;;;;;;1.20;0.98;;;18.10;65.80;;;;;;5018970;28;20030;-25
2021/11/17 07:21:08;;;;;;;1.15;1.15;;;18.10;65.40;;;;;;5018870;28;20026;-24
2021/11/17 07:23:33;;;;;;;3.28;1.02;;;18.20;65.50;;;;;;5019114;28;20104;-28
2021/11/17 07:25:59;;;;;;;1.35;1.10;;;18.20;65.40;;;;;;5019044;28;20105;-27
2021/11/17 07:28:25;;;;;;;1.10;1.10;;;18.20;65.50;;;;;;5019105;28;20041;-25
2021/11/17 07:30:50;;;;;;;4.63;1.20;;;18.20;65.40;;;;;;5015743;28;20022;-24
2021/11/17 07:33:16;;;;;;;0.90;0.90;;;18.20;65.50;;;;;;5017115;28;20088;-24
2021/11/17 07:35:47;;;;;;;0.88;0.85;;;18.20;65.50;;;;;;5016908;28;20402;-21
2021/11/17 07:38:15;;;;;;;1.95;1.13;;;18.20;66.00;;;;;;4996764;28;20132;-25
2021/11/17 07:40:41;;;;;;;1.85;1.40;;;18.20;65.90;;;;;;4997164;28;20062;-24
2021/11/17 07:43:09;;;;;;;0.95;0.95;;;18.20;66.20;;;;;;4999938;28;20421;-28
2021/11/17 07:45:34;;;;;;;1.10;1.00;;;18.10;66.20;;;;;;5018361;28;20049;-23
2021/11/17 07:48:00;;;;;;;2.70;1.10;;;18.20;66.30;;;;;;5018478;28;20398;-24
2021/11/17 07:50:26;;;;;;;3.92;0.98;;;18.10;66.50;;;;;;5025018;28;20021;-24
2021/11/17 07:52:51;;;;;;;0.90;0.90;;;18.00;66.70;;;;;;5038276;28;20032;-28
2021/11/17 07:55:17;;;;;;;1.00;1.00;;;18.00;66.70;;;;;;5038308;28;20056;-21
2021/11/17 07:57:44;;;;;;;1.00;1.00;;;18.00;66.70;;;;;;5038433;28;20033;-25
2021/11/17 08:00:14;;;;;;;1.15;1.10;;;18.00;66.70;;;;;;5042364;28;20457;-24
2021/11/17 08:02:40;;;;;;;1.00;0.98;;;18.00;66.80;;;;;;5030246;28;20053;-25
2021/11/17 08:05:06;;;;;;;1.20;1.08;;;18.00;66.90;;;;;;5016460;28;20025;-24
2021/11/17 08:07:32;;;;;;;1.10;1.00;;;17.90;66.90;;;;;;5014519;28;20057;-27
2021/11/17 08:09:57;;;;;;;1.10;1.10;;;17.90;66.90;;;;;;5015119;28;20036;-23
2021/11/17 08:12:23;;;;;;;1.95;0.95;;;17.90;66.80;;;;;;5018306;28;20032;-25
2021/11/17 08:14:49;;;;;;;1.10;0.95;;;18.00;66.70;;;;;;5018126;28;20066;-31
2021/11/17 08:17:14;;;;;;;2.95;1.02;;;17.90;66.50;;;;;;5018073;28;20026;-28
2021/11/17 08:19:40;;;;;;;1.00;1.00;;;17.90;66.50;;;;;;5017676;28;20036;-25
2021/11/17 08:22:07;;;;;;;0.88;0.85;;;18.00;66.50;;;;;;5018012;28;20045;-30
2021/11/17 08:24:36;;;;;;;1.30;1.20;;;18.00;66.50;;;;;;5017928;28;20034;-23
2021/11/17 08:27:03;;;;;;;1.02;1.02;;;18.00;66.40;;;;;;5017727;28;20030;-26
2021/11/17 08:29:28;;;;;;;0.80;0.80;;;17.90;66.50;;;;;;5017852;28;20080;-25
2021/11/17 08:31:54;;;;;;;1.10;0.95;;;17.90;66.50;;;;;;5017772;28;20018;-27
2021/11/17 08:34:20;;;;;;;1.92;1.02;;;17.90;66.50;;;;;;5017670;28;20033;-28
2021/11/17 08:36:45;;;;;;;1.35;1.10;;;17.90;66.60;;;;;;5017565;28;20086;-24
2021/11/17 08:39:16;;;;;;;0.90;0.90;;;17.90;66.50;;;;;;5017549;28;20034;-29
2021/11/17 08:41:42;;;;;;;1.05;0.75;;;18.00;66.30;;;;;;5017495;28;20100;-22
2021/11/17 08:44:08;;;;;;;0.90;0.90;;;17.90;66.30;;;;;;5017731;28;20038;-22
2021/11/17 08:46:33;;;;;;;0.90;0.90;;;17.90;66.50;;;;;;5017419;28;20521;-26
2021/11/17 08:49:00;;;;;;;0.80;0.80;;;17.90;66.50;;;;;;5017391;28;20030;-30
2021/11/17 08:51:29;;;;;;;1.35;1.00;;;17.90;66.40;;;;;;5032208;28;20025;-24
2021/11/17 08:53:55;;;;;;;1.10;1.10;;;17.90;66.30;;;;;;5037409;28;20030;-28
2021/11/17 08:56:21;;;;;;;0.80;0.80;;;17.90;66.30;;;;;;5037358;28;20446;-21
2021/11/17 08:58:47;;;;;;;0.80;0.80;;;17.90;66.30;;;;;;5037146;28;20060;-31
2021/11/17 09:01:13;;;;;;;1.00;0.82;;;17.90;66.30;;;;;;5017605;28;20022;-27
2021/11/17 09:03:39;;;;;;;0.73;0.73;;;17.90;66.30;;;;;;5017181;28;20030;-24
2021/11/17 09:06:05;;;;;;;0.80;0.80;;;17.90;66.30;;;;;;5017344;28;20029;-24
2021/11/17 09:08:31;;;;;;;0.65;0.65;;;17.90;66.30;;;;;;5017246;28;20030;-22
2021/11/17 09:10:59;;;;;;;0.70;0.70;;;17.80;67.10;;;;;;5017141;28;20034;-22
2021/11/17 09:13:25;;;;;;;0.77;0.77;;;17.90;66.30;;;;;;5017134;28;20025;-22
2021/11/17 09:15:53;;;;;;;0.80;0.80;;;17.80;66.30;;;;;;5017154;28;20048;-26
2021/11/17 09:18:20;;;;;;;0.63;0.63;;;17.90;66.30;;;;;;5016737;28;20034;-26
2021/11/17 09:20:46;;;;;;;0.82;0.82;;;17.90;66.10;;;;;;5016446;28;20014;-26
2021/11/17 09:23:12;;;;;;;0.75;0.75;;;17.90;66.20;;;;;;5017165;28;20475;-25
2021/11/17 09:25:38;;;;;;;0.77;0.77;;;17.90;66.20;;;;;;5017249;28;20030;-26
2021/11/17 09:28:04;;;;;;;0.50;0.50;;;17.90;66.10;;;;;;5017037;28;20609;-26
2021/11/17 09:30:30;;;;;;;0.60;0.60;;;17.90;66.10;;;;;;5016964;28;20026;-25
2021/11/17 09:32:58;;;;;;;0.70;0.70;;;17.90;66.10;;;;;;5016780;28;20018;-27
2021/11/17 09:35:24;;;;;;;0.80;0.80;;;17.90;66.00;;;;;;5031873;28;20104;-20
2021/11/17 09:37:51;;;;;;;0.77;0.77;;;17.80;66.10;;;;;;5016774;28;20058;-24
2021/11/17 09:40:20;;;;;;;1.20;0.93;;;17.90;66.10;;;;;;5016932;28;20030;-26
2021/11/17 09:42:46;;;;;;;0.70;0.70;;;17.80;66.10;;;;;;5016926;28;20036;-29
2021/11/17 09:45:12;;;;;;;0.60;0.60;;;17.80;66.20;;;;;;5031916;28;20046;-21
2021/11/17 09:47:38;;;;;;;0.65;0.65;;;17.90;66.10;;;;;;5016666;28;20042;-28
2021/11/17 09:50:28;;;;;;;0.52;0.52;;;17.90;66.10;;;;;;5020145;28;20095;-23
2021/11/17 09:53:09;;;;;;;1.00;0.88;;;17.80;66.10;;;;;;5033631;28;20037;-21
2021/11/17 09:56:00;;;;;;;0.90;0.90;;;17.80;66.10;;;;;;5036587;28;20021;-30
2021/11/17 09:58:35;;;;;;;0.73;0.73;;;17.80;66.10;;;;;;5036729;28;20097;-23
2021/11/17 10:01:31;;;;;;;0.63;0.63;;;17.80;66.10;;;;;;5033400;28;20022;-22
2021/11/17 10:04:05;;;;;;;0.57;0.57;;;17.80;66.10;;;;;;5011981;28;20506;-24
2021/11/17 10:14:38;;;;;;;0.80;0.80;;;17.90;65.70;;;;;;5016723;28;20109;-22
2021/11/17 10:17:09;;;;;;;0.63;0.63;;;17.90;65.70;;;;;;5016581;28;20022;-29
2021/11/17 10:19:35;;;;;;;0.60;0.60;;;17.90;65.70;;;;;;5030525;28;20030;-25
2021/11/17 10:22:11;;;;;;;0.57;0.57;;;17.90;65.70;;;;;;5016605;28;20040;-28
2021/11/17 10:24:41;;;;;;;0.60;0.60;;;18.00;65.60;;;;;;5016486;28;20026;-24
2021/11/17 10:27:06;;;;;;;0.60;0.60;;;17.90;65.60;;;;;;5016597;28;20100;-25
2021/11/17 10:29:35;;;;;;;0.60;0.60;;;17.90;65.70;;;;;;5031593;28;20061;-27
2021/11/17 10:32:05;;;;;;;0.57;0.57;;;17.90;65.70;;;;;;5019560;28;20030;-24
2021/11/17 10:34:36;;;;;;;0.57;0.57;;;17.90;65.70;;;;;;5019748;28;20014;-27
2021/11/17 10:37:15;;;;;;;0.70;0.55;;;17.90;65.60;;;;;;5035036;28;20048;-25
2021/11/17 10:39:46;;;;;;;1.25;0.50;;;18.00;65.50;;;;;;5035188;28;20022;-21
2021/11/17 10:42:18;;;;;;;0.68;0.60;;;18.00;65.50;;;;;;5019853;28;20379;-23
2021/11/17 10:44:46;;;;;;;0.52;0.52;;;18.00;65.30;;;;;;5019484;28;20030;-30
2021/11/17 10:47:21;;;;;;;0.40;0.40;;;18.00;65.10;;;;;;5019799;28;20613;-26
2021/11/17 10:50:08;;;;;;;0.50;0.50;;;18.00;65.10;;;;;;5020675;28;20030;-25
2021/11/17 10:52:46;;;;;;;0.50;0.50;;;18.00;65.10;;;;;;5039448;28;20022;-22
2021/11/17 10:55:37;;;;;;;0.43;0.43;;;18.10;65.10;;;;;;5039536;28;20090;-24
2021/11/17 10:58:04;;;;;;;0.40;0.40;;;18.00;65.00;;;;;;5039234;28;20108;-23
2021/11/17 11:00:42;;;;;;;0.40;0.40;;;18.00;65.30;;;;;;5025462;28;20112;-20
2021/11/17 11:03:08;;;;;;;0.50;0.50;;;18.00;65.20;;;;;;5019468;28;20030;-24
2021/11/17 11:05:38;;;;;;;0.40;0.40;;;18.00;65.10;;;;;;5034669;28;20486;-29
2021/11/17 11:08:15;;;;;;;0.47;0.47;;;18.00;65.30;;;;;;5019161;28;20030;-21
2021/11/17 11:10:44;;;;;;;0.38;0.38;;;18.00;65.30;;;;;;5034622;28;20026;-27
2021/11/17 11:13:12;;;;;;;0.50;0.40;;;18.10;65.20;;;;;;5019112;28;20383;-28
2021/11/17 11:15:46;;;;;;;0.40;0.40;;;18.00;65.00;;;;;;5034431;28;20029;-27
2021/11/17 11:18:16;;;;;;;0.60;0.60;;;18.10;65.00;;;;;;5034370;28;20022;-31
2021/11/17 11:20:47;;;;;;;0.47;0.43;;;18.10;65.00;;;;;;5018904;28;20115;-26
2021/11/17 11:23:30;;;;;;;0.52;0.52;;;18.10;65.00;;;;;;5010709;28;20026;-30
2021/11/17 11:26:12;;;;;;;1.67;0.40;;;18.10;65.10;;;;;;4998507;28;20041;-26
2021/11/17 11:28:47;;;;;;;0.47;0.40;;;18.10;65.00;;;;;;4998616;28;20122;-26
2021/11/17 11:31:13;;;;;;;2.45;2.25;;;18.10;65.00;;;;;;5000293;28;20034;-28
2021/11/17 11:33:48;;;;;;;2.00;1.90;;;18.10;65.20;;;;;;5017649;28;20028;-26
2021/11/17 11:36:14;;;;;;;1.42;1.33;;;18.00;65.20;;;;;;5015926;28;20482;-25
2021/11/17 11:38:49;;;;;;;15.43;9.05;;;18.10;65.10;;;;;;5016811;28;20029;-33
2021/11/17 11:41:29;;;;;;;23.00;13.13;;;18.00;65.20;;;;;;5017694;28;20536;-22
2021/11/17 11:44:26;;;;;;;50.53;28.10;;;18.10;65.10;;;;;;5034441;28;20052;-23
2021/11/17 11:46:58;;;;;;;40.00;22.90;;;18.10;65.00;;;;;;5035485;28;20131;-21
2021/11/17 11:49:54;;;;;;;39.42;20.85;;;18.10;65.00;;;;;;5036079;28;20129;-24
2021/11/17 11:52:26;;;;;;;45.25;25.20;;;18.10;65.20;;;;;;4673385;28;10000541;-27
2021/11/17 11:54:53;;;;;;;58.03;31.83;;;18.10;65.00;;;;;;5022829;28;20045;-20
2021/11/17 11:57:28;;;;;;;70.35;38.75;;;18.10;65.00;;;;;;5038496;28;20049;-23
2021/11/17 12:00:09;;;;;;;96.40;49.05;;;18.20;65.30;;;;;;5020494;28;20459;-21
2021/11/17 12:02:50;;;;;;;113.25;58.95;;;18.20;65.30;;;;;;5027160;28;20045;-27
2021/11/17 12:05:53;;;;;;;117.07;58.75;;;18.20;65.10;;;;;;5032549;28;20136;-27
2021/11/17 12:08:27;;;;;;;131.70;68.32;;;18.20;65.10;;;;;;5028992;28;20069;-22
2021/11/17 12:11:11;;;;;;;140.13;74.40;;;18.20;65.30;;;;;;5013509;28;20064;-27
2021/11/17 12:13:57;;;;;;;144.43;76.68;;;18.20;65.20;;;;;;5033704;28;20025;-29
2021/11/17 12:16:26;;;;;;;159.15;86.97;;;18.30;65.40;;;;;;5037680;28;20048;-25
2021/11/17 12:19:06;;;;;;;172.60;94.05;;;18.20;65.30;;;;;;5024700;28;20041;-33
2021/11/17 12:21:43;;;;;;;173.75;91.18;;;18.20;65.70;;;;;;5043330;28;20489;-22
2021/11/17 12:24:10;;;;;;;174.43;92.78;;;18.20;65.60;;;;;;5051131;28;20048;-26
2021/11/17 12:26:40;;;;;;;177.13;94.18;;;18.20;65.50;;;;;;5040326;28;20053;-28
2021/11/17 12:29:13;;;;;;;170.98;90.70;;;18.30;65.50;;;;;;5035275;28;20437;-24
2021/11/17 12:31:51;;;;;;;168.98;90.75;;;18.30;65.40;;;;;;5035569;28;20045;-29
2021/11/17 12:34:22;;;;;;;167.68;90.65;;;18.30;65.50;;;;;;5032444;28;20140;-30
2021/11/17 12:37:01;;;;;;;168.85;90.68;;;18.30;65.50;;;;;;5055595;28;20080;-24
2021/11/17 12:39:56;;;;;;;164.65;89.60;;;18.30;65.50;;;;;;5028580;28;20111;-28
2021/11/17 12:42:50;;;;;;;164.18;87.07;;;18.30;65.30;;;;;;5015237;28;20042;-29
2021/11/17 12:45:28;;;;;;;159.90;86.68;;;18.30;65.30;;;;;;5006435;28;20411;-28
2021/11/17 12:48:05;;;;;;;160.68;85.05;;;18.30;65.50;;;;;;5029885;28;20050;-25
2021/11/17 12:50:31;;;;;;;153.95;81.45;;;18.30;65.50;;;;;;5032711;28;20037;-28
2021/11/17 12:52:59;;;;;;;146.45;78.88;;;18.30;65.30;;;;;;5023166;28;20053;-26
2021/11/17 12:55:34;;;;;;;150.13;78.78;;;18.40;65.40;;;;;;5015772;28;20101;-24
2021/11/17 12:58:04;;;;;;;144.27;77.00;;;18.40;65.80;;;;;;5012474;28;20117;-32
2021/11/17 13:00:30;;;;;;;139.68;74.00;;;18.40;66.10;;;;;;5027201;28;20048;-27
2021/11/17 13:03:05;;;;;;;133.00;70.53;;;18.30;66.40;;;;;;5040327;28;20045;-29
2021/11/17 13:05:35;;;;;;;134.32;72.55;;;18.30;66.30;;;;;;5065843;28;20179;-24
2021/11/17 13:08:04;;;;;;;125.30;66.85;;;18.30;66.50;;;;;;5036105;28;20042;-23
2021/11/17 13:10:32;;;;;;;121.70;63.08;;;18.30;66.50;;;;;;5015379;28;20068;-27
2021/11/17 13:13:04;;;;;;;126.68;67.13;;;18.30;66.50;;;;;;5013526;28;20136;-29
2021/11/17 13:15:52;;;;;;;123.18;64.07;;;18.40;66.80;;;;;;5027594;28;20025;-30
2021/11/17 13:18:44;;;;;;;117.15;63.47;;;18.40;66.40;;;;;;5022569;28;20091;-27
2021/11/17 13:21:09;;;;;;;113.40;60.10;;;18.40;66.50;;;;;;5053715;28;20021;-24
2021/11/17 13:23:43;;;;;;;116.88;60.05;;;18.40;66.50;;;;;;5045739;28;20230;-26
2021/11/17 13:26:16;;;;;;;121.68;63.95;;;18.30;66.50;;;;;;5036201;28;20014;-24
2021/11/17 13:28:49;;;;;;;106.88;55.90;;;18.30;66.60;;;;;;5034851;28;20030;-27
2021/11/17 13:31:34;;;;;;;107.03;57.38;;;18.30;66.40;;;;;;5036214;28;20119;-24
2021/11/17 13:34:08;;;;;;;106.25;55.30;;;18.30;66.50;;;;;;5034501;28;20393;-26
2021/11/17 13:36:44;;;;;;;102.13;56.30;;;18.30;66.60;;;;;;5056340;28;20045;-20
2021/11/17 13:39:10;;;;;;;105.53;54.85;;;18.30;66.40;;;;;;5056456;28;20087;-23
2021/11/17 13:41:36;;;;;;;103.70;54.33;;;18.30;66.40;;;;;;5052849;28;20032;-23
2021/11/17 13:44:02;;;;;;;103.00;54.17;;;18.30;66.40;;;;;;5034965;28;20449;-26
2021/11/17 13:46:28;;;;;;;100.22;50.80;;;18.20;66.40;;;;;;5036126;28;20068;-22
2021/11/17 13:48:54;;;;;;;104.10;52.95;;;18.30;66.40;;;;;;5043633;28;20378;-21
2021/11/17 13:51:22;;;;;;;103.43;53.38;;;18.30;66.40;;;;;;5041656;28;20101;-24
2021/11/17 13:53:47;;;;;;;92.85;49.55;;;18.30;66.30;;;;;;5035113;28;20021;-24
2021/11/17 13:56:17;;;;;;;101.57;54.03;;;18.20;66.30;;;;;;5029696;28;20045;-26
2021/11/17 13:58:43;;;;;;;94.00;51.60;;;18.20;66.20;;;;;;5029357;28;20613;-22
2021/11/17 14:01:09;;;;;;;88.68;46.50;;;18.20;66.10;;;;;;5037678;28;20075;-26
2021/11/17 14:03:35;;;;;;;87.45;47.03;;;18.20;66.10;;;;;;5036182;28;20022;-25
2021/11/17 14:06:04;;;;;;;90.32;47.80;;;18.30;66.10;;;;;;5036674;28;20017;-27
2021/11/17 14:08:31;;;;;;;89.57;47.70;;;18.30;66.10;;;;;;5071531;28;20033;-23
2021/11/17 14:10:58;;;;;;;92.25;48.25;;;18.20;66.10;;;;;;5035564;28;20010;-26
2021/11/17 14:13:24;;;;;;;88.43;47.25;;;18.20;66.20;;;;;;5036094;28;20033;-20
2021/11/17 14:15:49;;;;;;;90.40;47.88;;;18.20;66.10;;;;;;5039818;28;20025;-25
2021/11/17 14:18:15;;;;;;;82.30;44.95;;;18.20;66.10;;;;;;5055427;28;20025;-23
2021/11/17 14:20:41;;;;;;;82.72;44.90;;;18.20;66.00;;;;;;5041173;28;20025;-21
2021/11/17 14:23:07;;;;;;;79.32;43.17;;;18.20;66.00;;;;;;5039709;28;20040;-28
2021/11/17 14:25:32;;;;;;;78.57;43.15;;;18.20;65.90;;;;;;5039912;28;20028;-23
2021/11/17 14:28:00;;;;;;;77.70;42.05;;;18.30;65.90;;;;;;5053014;28;20046;-26
2021/11/17 14:30:32;;;;;;;73.25;41.22;;;18.30;65.90;;;;;;5038683;28;20052;-23
2021/11/17 14:32:58;;;;;;;79.32;40.80;;;18.30;65.90;;;;;;5059082;28;20025;-24
2021/11/17 14:35:25;;;;;;;71.65;38.85;;;18.20;65.80;;;;;;5074228;28;20028;-28
2021/11/17 14:37:51;;;;;;;74.32;40.63;;;18.20;65.80;;;;;;5038146;28;20405;-27
2021/11/17 14:40:17;;;;;;;72.53;39.38;;;18.20;65.90;;;;;;5039282;28;20026;-24
2021/11/17 14:42:43;;;;;;;71.72;39.00;;;18.30;65.80;;;;;;5038280;28;20056;-28
2021/11/17 14:45:11;;;;;;;68.82;38.85;;;18.20;65.90;;;;;;5039162;28;20037;-26
2021/11/17 14:47:37;;;;;;;73.90;39.30;;;18.20;65.80;;;;;;5024942;28;20037;-24
2021/11/17 14:50:06;;;;;;;67.97;39.10;;;18.20;66.00;;;;;;5035362;28;20017;-21
2021/11/17 14:52:32;;;;;;;69.30;39.50;;;18.20;65.90;;;;;;5035342;28;20151;-24
2021/11/17 14:54:58;;;;;;;64.50;37.58;;;18.20;65.90;;;;;;5039131;28;20063;-30
2021/11/17 14:57:23;;;;;;;64.47;37.20;;;18.20;65.70;;;;;;5039020;28;20018;-20
2021/11/17 14:59:49;;;;;;;62.97;35.50;;;18.20;65.80;;;;;;5030940;28;20057;-27
2021/11/17 15:02:14;;;;;;;65.25;36.00;;;18.20;65.80;;;;;;5037100;28;20029;-24
2021/11/17 15:04:40;;;;;;;67.97;37.55;;;18.20;65.90;;;;;;5050136;28;20032;-25
2021/11/17 15:07:08;;;;;;;61.40;36.90;;;18.20;65.90;;;;;;5039088;28;20075;-25
2021/11/17 15:09:34;;;;;;;61.72;34.78;;;18.20;65.80;;;;;;5029103;28;20057;-22
2021/11/17 15:12:16;;;;;;;61.10;35.67;;;18.20;65.90;;;;;;5039168;28;20029;-27
2021/11/17 15:14:41;;;;;;;59.97;34.85;;;18.20;65.90;;;;;;5038869;28;20017;-22
2021/11/17 15:17:07;;;;;;;57.17;32.35;;;18.20;65.70;;;;;;5038761;28;20028;-21
2021/11/17 15:19:33;;;;;;;56.65;33.42;;;18.10;65.90;;;;;;5037606;28;20024;-25
2021/11/17 15:21:58;;;;;;;57.53;33.40;;;18.20;65.70;;;;;;5038451;28;20032;-21
2021/11/17 15:24:24;;;;;;;57.38;32.67;;;18.20;65.70;;;;;;5038635;28;20551;-23
2021/11/17 15:27:11;;;;;;;57.13;31.55;;;18.20;65.70;;;;;;5038734;28;20025;-24
2021/11/17 15:29:38;;;;;;;53.78;29.73;;;18.20;65.60;;;;;;5030457;28;20022;-24
2021/11/17 15:32:04;;;;;;;52.30;30.25;;;18.20;65.60;;;;;;5038628;28;20025;-22
2021/11/17 15:34:30;;;;;;;54.50;31.20;;;18.20;65.50;;;;;;5037327;28;20447;-26
2021/11/17 15:36:56;;;;;;;52.28;30.10;;;18.20;65.40;;;;;;5038415;28;20845;-28
2021/11/17 15:39:21;;;;;;;47.45;29.45;;;18.20;65.60;;;;;;5031229;28;20094;-26
2021/11/17 15:41:47;;;;;;;50.92;30.27;;;18.10;65.70;;;;;;5036055;28;20029;-24
2021/11/17 15:44:13;;;;;;;50.38;29.08;;;18.10;65.50;;;;;;5038185;28;20686;-28
2021/11/17 15:46:49;;;;;;;49.10;28.77;;;18.10;65.70;;;;;;5038473;28;20473;-23
2021/11/17 15:49:14;;;;;;;52.28;30.27;;;18.10;65.80;;;;;;5050837;28;20025;-23